Aviation Digital Data Service (ADDS)

Output produced by TAFs form (1105 UTC 28 August 2014)
found at http://www.aviationweather.gov/adds/tafs/
 
KPOU 280520Z 2806/2906 00000KT P6SM SKC 
     FM280800 00000KT P6SM SCT250 
     FM281500 33012KT P6SM SCT040 
     FM290000 33004KT P6SM SKC